sensor_id;sensor_type;location;lat;lon;timestamp;pressure;altitude;pressure_sealevel;temperature;humidity
29417;BME280;28421;51.030;4.006;2023-11-18T00:00:31;102309.38;;;5.42;100.00
29417;BME280;28421;51.030;4.006;2023-11-18T00:02:57;102338.19;;;5.49;100.00
29417;BME280;28421;51.030;4.006;2023-11-18T00:05:22;102301.56;;;5.39;100.00
29417;BME280;28421;51.030;4.006;2023-11-18T00:07:49;102306.31;;;5.48;100.00
29417;BME280;28421;51.030;4.006;2023-11-18T00:10:15;102301.91;;;5.47;100.00
29417;BME280;28421;51.030;4.006;2023-11-18T00:12:40;102277.56;;;5.39;100.00
29417;BME280;28421;51.030;4.006;2023-11-18T00:15:07;102314.88;;;5.66;100.00
29417;BME280;28421;51.030;4.006;2023-11-18T00:17:37;102244.59;;;5.27;100.00
29417;BME280;28421;51.030;4.006;2023-11-18T00:20:03;102301.00;;;5.61;100.00
29417;BME280;28421;51.030;4.006;2023-11-18T00:22:37;102264.66;;;5.45;100.00
29417;BME280;28421;51.030;4.006;2023-11-18T00:25:03;102274.72;;;5.55;100.00
29417;BME280;28421;51.030;4.006;2023-11-18T00:27:33;102263.06;;;5.56;100.00
29417;BME280;28421;51.030;4.006;2023-11-18T00:30:02;102288.31;;;5.77;100.00
29417;BME280;28421;51.030;4.006;2023-11-18T00:32:31;102251.34;;;5.58;100.00
29417;BME280;28421;51.030;4.006;2023-11-18T00:34:57;102241.19;;;5.51;100.00
29417;BME280;28421;51.030;4.006;2023-11-18T00:37:22;102261.28;;;5.69;100.00
29417;BME280;28421;51.030;4.006;2023-11-18T00:39:48;102270.16;;;5.69;100.00
29417;BME280;28421;51.030;4.006;2023-11-18T00:42:13;102270.03;;;5.71;100.00
29417;BME280;28421;51.030;4.006;2023-11-18T00:44:39;102248.16;;;5.66;100.00
29417;BME280;28421;51.030;4.006;2023-11-18T00:47:04;102282.31;;;5.86;100.00
29417;BME280;28421;51.030;4.006;2023-11-18T00:49:30;102239.94;;;5.56;100.00
29417;BME280;28421;51.030;4.006;2023-11-18T00:51:55;102299.94;;;5.89;100.00
29417;BME280;28421;51.030;4.006;2023-11-18T00:54:21;102287.78;;;5.85;100.00
29417;BME280;28421;51.030;4.006;2023-11-18T00:56:47;102266.31;;;5.73;100.00
29417;BME280;28421;51.030;4.006;2023-11-18T00:59:12;102284.34;;;5.83;100.00
29417;BME280;28421;51.030;4.006;2023-11-18T01:01:38;102266.50;;;5.70;100.00
29417;BME280;28421;51.030;4.006;2023-11-18T01:04:04;102277.63;;;5.77;100.00
29417;BME280;28421;51.030;4.006;2023-11-18T01:06:30;102271.53;;;5.62;100.00
29417;BME280;28421;51.030;4.006;2023-11-18T01:08:57;102302.91;;;5.84;100.00
29417;BME280;28421;51.030;4.006;2023-11-18T01:11:23;102269.06;;;5.72;100.00
29417;BME280;28421;51.030;4.006;2023-11-18T01:13:49;102302.22;;;5.95;100.00
29417;BME280;28421;51.030;4.006;2023-11-18T01:16:16;102259.88;;;5.76;100.00
29417;BME280;28421;51.030;4.006;2023-11-18T01:18:42;102257.78;;;5.68;100.00
29417;BME280;28421;51.030;4.006;2023-11-18T01:21:07;102289.50;;;5.86;100.00
29417;BME280;28421;51.030;4.006;2023-11-18T01:23:37;102312.47;;;6.01;100.00
29417;BME280;28421;51.030;4.006;2023-11-18T01:26:05;102277.09;;;5.85;100.00
29417;BME280;28421;51.030;4.006;2023-11-18T01:28:34;102263.53;;;5.75;100.00
29417;BME280;28421;51.030;4.006;2023-11-18T01:31:05;102279.78;;;5.85;100.00
29417;BME280;28421;51.030;4.006;2023-11-18T01:33:38;102261.69;;;5.63;100.00
29417;BME280;28421;51.030;4.006;2023-11-18T01:36:09;102255.19;;;5.67;100.00
29417;BME280;28421;51.030;4.006;2023-11-18T01:38:36;102292.25;;;5.84;100.00
29417;BME280;28421;51.030;4.006;2023-11-18T01:41:06;102271.22;;;5.80;100.00
29417;BME280;28421;51.030;4.006;2023-11-18T01:43:32;102274.31;;;5.73;100.00
29417;BME280;28421;51.030;4.006;2023-11-18T01:46:02;102285.97;;;5.85;100.00
29417;BME280;28421;51.030;4.006;2023-11-18T01:48:30;102286.16;;;5.82;100.00
29417;BME280;28421;51.030;4.006;2023-11-18T01:50:58;102296.88;;;5.95;100.00
29417;BME280;28421;51.030;4.006;2023-11-18T01:53:24;102262.88;;;5.71;100.00
29417;BME280;28421;51.030;4.006;2023-11-18T01:55:49;102271.84;;;5.83;100.00
29417;BME280;28421;51.030;4.006;2023-11-18T01:58:16;102275.72;;;5.92;100.00
29417;BME280;28421;51.030;4.006;2023-11-18T02:00:45;102258.63;;;5.82;100.00
29417;BME280;28421;51.030;4.006;2023-11-18T02:03:14;102281.00;;;5.93;100.00
29417;BME280;28421;51.030;4.006;2023-11-18T02:05:40;102300.72;;;6.04;100.00
29417;BME280;28421;51.030;4.006;2023-11-18T02:08:07;102292.38;;;6.08;100.00
29417;BME280;28421;51.030;4.006;2023-11-18T02:10:34;102247.94;;;5.82;100.00
29417;BME280;28421;51.030;4.006;2023-11-18T02:15:41;102241.03;;;5.92;100.00
29417;BME280;28421;51.030;4.006;2023-11-18T02:18:08;102262.94;;;6.10;100.00
29417;BME280;28421;51.030;4.006;2023-11-18T02:20:38;102232.47;;;5.87;100.00
29417;BME280;28421;51.030;4.006;2023-11-18T02:23:04;102248.47;;;5.87;100.00
29417;BME280;28421;51.030;4.006;2023-11-18T02:25:33;102261.44;;;6.06;100.00
29417;BME280;28421;51.030;4.006;2023-11-18T02:27:59;102249.97;;;5.91;100.00
29417;BME280;28421;51.030;4.006;2023-11-18T02:30:25;102253.50;;;5.91;100.00
29417;BME280;28421;51.030;4.006;2023-11-18T02:33:00;102241.03;;;5.92;100.00
29417;BME280;28421;51.030;4.006;2023-11-18T02:35:43;102250.44;;;6.10;100.00
29417;BME280;28421;51.030;4.006;2023-11-18T02:38:16;102212.81;;;5.88;100.00
29417;BME280;28421;51.030;4.006;2023-11-18T02:40:44;102219.25;;;5.98;100.00
29417;BME280;28421;51.030;4.006;2023-11-18T02:43:11;102247.81;;;6.21;100.00
29417;BME280;28421;51.030;4.006;2023-11-18T02:45:37;102236.84;;;6.13;100.00
29417;BME280;28421;51.030;4.006;2023-11-18T02:48:04;102187.63;;;5.92;100.00
29417;BME280;28421;51.030;4.006;2023-11-18T02:50:31;102227.25;;;6.11;100.00
29417;BME280;28421;51.030;4.006;2023-11-18T02:52:58;102216.69;;;5.96;100.00
29417;BME280;28421;51.030;4.006;2023-11-18T02:55:24;102180.38;;;5.81;100.00
29417;BME280;28421;51.030;4.006;2023-11-18T02:57:50;102224.16;;;6.04;100.00
29417;BME280;28421;51.030;4.006;2023-11-18T03:00:17;102198.81;;;5.84;100.00
29417;BME280;28421;51.030;4.006;2023-11-18T03:02:49;102182.38;;;5.90;100.00
29417;BME280;28421;51.030;4.006;2023-11-18T03:05:17;102181.97;;;5.96;100.00
29417;BME280;28421;51.030;4.006;2023-11-18T03:07:44;102202.44;;;6.21;100.00
29417;BME280;28421;51.030;4.006;2023-11-18T03:10:15;102161.88;;;5.91;100.00
29417;BME280;28421;51.030;4.006;2023-11-18T03:12:50;102175.69;;;5.97;100.00
29417;BME280;28421;51.030;4.006;2023-11-18T03:15:16;102165.94;;;5.96;100.00
29417;BME280;28421;51.030;4.006;2023-11-18T03:17:44;102196.78;;;6.13;100.00
29417;BME280;28421;51.030;4.006;2023-11-18T03:20:11;102175.88;;;6.07;100.00
29417;BME280;28421;51.030;4.006;2023-11-18T03:22:40;102179.41;;;6.08;100.00
29417;BME280;28421;51.030;4.006;2023-11-18T03:25:06;102179.41;;;6.08;100.00
29417;BME280;28421;51.030;4.006;2023-11-18T03:27:33;102177.88;;;6.16;100.00
29417;BME280;28421;51.030;4.006;2023-11-18T03:29:58;102178.09;;;6.13;100.00
29417;BME280;28421;51.030;4.006;2023-11-18T03:32:24;102198.34;;;6.29;100.00
29417;BME280;28421;51.030;4.006;2023-11-18T03:34:49;102155.69;;;6.03;100.00
29417;BME280;28421;51.030;4.006;2023-11-18T03:37:15;102164.00;;;6.11;100.00
29417;BME280;28421;51.030;4.006;2023-11-18T03:39:40;102166.56;;;6.13;100.00
29417;BME280;28421;51.030;4.006;2023-11-18T03:42:06;102177.13;;;6.27;100.00
29417;BME280;28421;51.030;4.006;2023-11-18T03:44:31;102162.28;;;6.23;100.00
29417;BME280;28421;51.030;4.006;2023-11-18T03:46:57;102168.63;;;6.33;100.00
29417;BME280;28421;51.030;4.006;2023-11-18T03:49:23;102155.84;;;6.26;100.00
29417;BME280;28421;51.030;4.006;2023-11-18T03:51:48;102138.56;;;6.18;100.00
29417;BME280;28421;51.030;4.006;2023-11-18T03:54:14;102142.09;;;6.19;100.00
29417;BME280;28421;51.030;4.006;2023-11-18T03:56:40;102149.44;;;6.28;100.00
29417;BME280;28421;51.030;4.006;2023-11-18T03:59:05;102132.78;;;6.25;100.00
29417;BME280;28421;51.030;4.006;2023-11-18T04:01:31;102149.94;;;6.33;100.00
29417;BME280;28421;51.030;4.006;2023-11-18T04:03:57;102112.66;;;6.32;100.00
29417;BME280;28421;51.030;4.006;2023-11-18T04:06:23;102119.84;;;6.31;100.00
29417;BME280;28421;51.030;4.006;2023-11-18T04:08:50;102128.75;;;6.43;100.00
29417;BME280;28421;51.030;4.006;2023-11-18T04:11:16;102082.09;;;6.12;100.00
29417;BME280;28421;51.030;4.006;2023-11-18T04:13:41;102112.19;;;6.38;100.00
29417;BME280;28421;51.030;4.006;2023-11-18T04:16:14;102110.28;;;6.40;100.00
29417;BME280;28421;51.030;4.006;2023-11-18T04:18:44;102082.44;;;6.31;100.00
29417;BME280;28421;51.030;4.006;2023-11-18T04:21:12;102112.47;;;6.46;100.00
29417;BME280;28421;51.030;4.006;2023-11-18T04:23:42;102108.88;;;6.58;100.00
29417;BME280;28421;51.030;4.006;2023-11-18T04:26:08;102066.28;;;6.33;100.00
29417;BME280;28421;51.030;4.006;2023-11-18T04:28:35;102071.41;;;6.36;100.00
29417;BME280;28421;51.030;4.006;2023-11-18T04:31:02;102102.56;;;6.59;100.00
29417;BME280;28421;51.030;4.006;2023-11-18T04:33:28;102077.66;;;6.47;100.00
29417;BME280;28421;51.030;4.006;2023-11-18T04:35:54;102039.34;;;6.36;100.00
29417;BME280;28421;51.030;4.006;2023-11-18T04:38:23;102043.94;;;6.34;100.00
29417;BME280;28421;51.030;4.006;2023-11-18T04:40:48;102053.84;;;6.44;100.00
29417;BME280;28421;51.030;4.006;2023-11-18T04:43:14;102080.97;;;6.62;100.00
29417;BME280;28421;51.030;4.006;2023-11-18T04:45:41;102056.16;;;6.49;100.00
29417;BME280;28421;51.030;4.006;2023-11-18T04:48:07;102056.28;;;6.47;100.00
29417;BME280;28421;51.030;4.006;2023-11-18T04:50:33;102053.59;;;6.47;100.00
29417;BME280;28421;51.030;4.006;2023-11-18T04:52:59;102070.19;;;6.64;100.00
29417;BME280;28421;51.030;4.006;2023-11-18T04:55:24;102052.78;;;6.58;100.00
29417;BME280;28421;51.030;4.006;2023-11-18T04:57:53;102049.03;;;6.61;100.00
29417;BME280;28421;51.030;4.006;2023-11-18T05:00:18;102036.13;;;6.55;100.00
29417;BME280;28421;51.030;4.006;2023-11-18T05:02:45;102034.06;;;6.58;100.00
29417;BME280;28421;51.030;4.006;2023-11-18T05:05:15;102013.66;;;6.57;100.00
29417;BME280;28421;51.030;4.006;2023-11-18T05:07:41;102066.22;;;6.81;100.00
29417;BME280;28421;51.030;4.006;2023-11-18T05:10:08;102063.41;;;6.82;100.00
29417;BME280;28421;51.030;4.006;2023-11-18T05:12:35;102028.00;;;6.67;100.00
29417;BME280;28421;51.030;4.006;2023-11-18T05:15:01;102010.16;;;6.57;100.00
29417;BME280;28421;51.030;4.006;2023-11-18T05:17:28;101984.00;;;6.49;100.00
29417;BME280;28421;51.030;4.006;2023-11-18T05:19:55;102040.22;;;6.83;100.00
29417;BME280;28421;51.030;4.006;2023-11-18T05:22:20;102011.16;;;6.78;100.00
29417;BME280;28421;51.030;4.006;2023-11-18T05:24:46;101994.25;;;6.66;100.00
29417;BME280;28421;51.030;4.006;2023-11-18T05:27:13;101999.00;;;6.74;100.00
29417;BME280;28421;51.030;4.006;2023-11-18T05:29:39;102019.44;;;6.86;100.00
29417;BME280;28421;51.030;4.006;2023-11-18T05:32:07;102035.75;;;6.94;100.00
29417;BME280;28421;51.030;4.006;2023-11-18T05:34:33;102028.53;;;6.84;100.00
29417;BME280;28421;51.030;4.006;2023-11-18T05:37:01;102006.56;;;6.80;100.00
29417;BME280;28421;51.030;4.006;2023-11-18T05:39:26;102016.53;;;7.01;100.00
29417;BME280;28421;51.030;4.006;2023-11-18T05:41:58;101991.63;;;6.89;100.00
29417;BME280;28421;51.030;4.006;2023-11-18T05:44:23;101981.28;;;6.84;100.00
29417;BME280;28421;51.030;4.006;2023-11-18T05:46:58;101998.19;;;6.96;100.00
29417;BME280;28421;51.030;4.006;2023-11-18T05:49:23;101991.97;;;6.95;100.00
29417;BME280;28421;51.030;4.006;2023-11-18T05:51:50;101976.31;;;6.91;100.00
29417;BME280;28421;51.030;4.006;2023-11-18T05:54:15;101989.69;;;7.02;100.00
29417;BME280;28421;51.030;4.006;2023-11-18T05:56:41;101994.31;;;7.11;100.00
29417;BME280;28421;51.030;4.006;2023-11-18T05:59:06;101979.59;;;7.06;100.00
29417;BME280;28421;51.030;4.006;2023-11-18T06:01:33;101968.16;;;6.92;100.00
29417;BME280;28421;51.030;4.006;2023-11-18T06:04:00;102004.53;;;7.17;100.00
29417;BME280;28421;51.030;4.006;2023-11-18T06:06:26;101973.50;;;7.04;100.00
29417;BME280;28421;51.030;4.006;2023-11-18T06:08:51;101971.34;;;6.97;100.00
29417;BME280;28421;51.030;4.006;2023-11-18T06:11:19;102018.75;;;7.18;100.00
29417;BME280;28421;51.030;4.006;2023-11-18T06:13:46;101970.13;;;7.02;100.00
29417;BME280;28421;51.030;4.006;2023-11-18T06:16:16;101955.78;;;7.03;100.00
29417;BME280;28421;51.030;4.006;2023-11-18T06:18:44;102000.38;;;7.25;100.00
29417;BME280;28421;51.030;4.006;2023-11-18T06:21:11;101960.63;;;7.09;100.00
29417;BME280;28421;51.030;4.006;2023-11-18T06:23:36;101933.16;;;6.95;100.00
29417;BME280;28421;51.030;4.006;2023-11-18T06:26:02;101931.19;;;7.09;100.00
29417;BME280;28421;51.030;4.006;2023-11-18T06:28:28;101939.50;;;7.06;100.00
29417;BME280;28421;51.030;4.006;2023-11-18T06:30:53;101972.03;;;7.33;100.00
29417;BME280;28421;51.030;4.006;2023-11-18T06:33:19;101946.78;;;7.15;100.00
29417;BME280;28421;51.030;4.006;2023-11-18T06:35:48;101936.81;;;7.06;100.00
29417;BME280;28421;51.030;4.006;2023-11-18T06:38:13;101957.34;;;7.28;100.00
29417;BME280;28421;51.030;4.006;2023-11-18T06:40:40;101941.66;;;7.12;100.00
29417;BME280;28421;51.030;4.006;2023-11-18T06:43:06;101951.13;;;7.27;100.00
29417;BME280;28421;51.030;4.006;2023-11-18T06:45:36;101954.78;;;7.26;100.00
29417;BME280;28421;51.030;4.006;2023-11-18T06:48:05;101973.09;;;7.42;100.00
29417;BME280;28421;51.030;4.006;2023-11-18T06:50:31;101938.97;;;7.23;100.00
29417;BME280;28421;51.030;4.006;2023-11-18T06:52:57;101962.41;;;7.42;100.00
29417;BME280;28421;51.030;4.006;2023-11-18T06:55:24;101941.75;;;7.33;100.00
29417;BME280;28421;51.030;4.006;2023-11-18T06:57:51;101945.66;;;7.40;100.00
29417;BME280;28421;51.030;4.006;2023-11-18T07:00:17;101953.16;;;7.46;100.00
29417;BME280;28421;51.030;4.006;2023-11-18T07:02:43;101945.66;;;7.40;100.00
29417;BME280;28421;51.030;4.006;2023-11-18T07:05:09;101977.84;;;7.61;100.00
29417;BME280;28421;51.030;4.006;2023-11-18T07:07:35;101946.13;;;7.45;100.00
29417;BME280;28421;51.030;4.006;2023-11-18T07:10:00;101977.31;;;7.67;100.00
29417;BME280;28421;51.030;4.006;2023-11-18T07:12:26;101937.84;;;7.48;100.00
29417;BME280;28421;51.030;4.006;2023-11-18T07:14:51;101930.78;;;7.47;100.00
29417;BME280;28421;51.030;4.006;2023-11-18T07:17:17;101953.28;;;7.56;100.00
29417;BME280;28421;51.030;4.006;2023-11-18T07:19:44;101922.28;;;7.42;100.00
29417;BME280;28421;51.030;4.006;2023-11-18T07:22:10;101945.34;;;7.54;100.00
29417;BME280;28421;51.030;4.006;2023-11-18T07:24:35;101971.84;;;7.80;100.00
29417;BME280;28421;51.030;4.006;2023-11-18T07:27:01;101939.91;;;7.56;100.00
29417;BME280;28421;51.030;4.006;2023-11-18T07:29:26;101965.06;;;7.64;100.00
29417;BME280;28421;51.030;4.006;2023-11-18T07:31:53;101964.53;;;7.70;100.00
29417;BME280;28421;51.030;4.006;2023-11-18T07:34:22;101952.38;;;7.66;100.00
29417;BME280;28421;51.030;4.006;2023-11-18T07:36:49;101918.88;;;7.51;100.00
29417;BME280;28421;51.030;4.006;2023-11-18T07:39:15;101952.88;;;7.71;100.00
29417;BME280;28421;51.030;4.006;2023-11-18T07:41:44;101919.66;;;7.63;100.00
29417;BME280;28421;51.030;4.006;2023-11-18T07:44:09;101905.22;;;7.54;100.00
29417;BME280;28421;51.030;4.006;2023-11-18T07:46:38;101925.50;;;7.68;100.00
29417;BME280;28421;51.030;4.006;2023-11-18T07:49:03;101916.28;;;7.61;100.00
29417;BME280;28421;51.030;4.006;2023-11-18T07:51:29;101915.75;;;7.67;100.00
29417;BME280;28421;51.030;4.006;2023-11-18T07:53:55;101902.25;;;7.68;100.00
29417;BME280;28421;51.030;4.006;2023-11-18T07:56:21;101898.75;;;7.68;100.00
29417;BME280;28421;51.030;4.006;2023-11-18T07:58:49;101884.53;;;7.56;100.00
29417;BME280;28421;51.030;4.006;2023-11-18T08:01:15;101913.38;;;7.85;100.00
29417;BME280;28421;51.030;4.006;2023-11-18T08:03:44;101902.94;;;7.82;100.00
29417;BME280;28421;51.030;4.006;2023-11-18T08:06:12;101886.19;;;7.68;100.00
29417;BME280;28421;51.030;4.006;2023-11-18T08:08:38;101839.03;;;7.56;100.00
29417;BME280;28421;51.030;4.006;2023-11-18T08:11:10;101893.84;;;7.73;100.00
29417;BME280;28421;51.030;4.006;2023-11-18T08:13:36;101872.69;;;7.70;100.00
29417;BME280;28421;51.030;4.006;2023-11-18T08:16:01;101878.97;;;7.80;100.00
29417;BME280;28421;51.030;4.006;2023-11-18T08:18:27;101861.84;;;7.71;100.00
29417;BME280;28421;51.030;4.006;2023-11-18T08:20:57;101869.53;;;7.65;100.00
29417;BME280;28421;51.030;4.006;2023-11-18T08:23:23;101863.59;;;7.61;100.00
29417;BME280;28421;51.030;4.006;2023-11-18T08:25:48;101878.75;;;7.72;100.00
29417;BME280;28421;51.030;4.006;2023-11-18T08:28:16;101907.59;;;8.01;100.00
29417;BME280;28421;51.030;4.006;2023-11-18T08:30:41;101900.22;;;7.93;100.00
29417;BME280;28421;51.030;4.006;2023-11-18T08:33:07;101912.63;;;7.94;100.00
29417;BME280;28421;51.030;4.006;2023-11-18T08:35:35;101865.31;;;7.83;100.00
29417;BME280;28421;51.030;4.006;2023-11-18T08:38:00;101848.72;;;7.68;100.00
29417;BME280;28421;51.030;4.006;2023-11-18T08:40:26;101872.94;;;7.88;100.00
29417;BME280;28421;51.030;4.006;2023-11-18T08:42:53;101868.31;;;7.90;100.00
29417;BME280;28421;51.030;4.006;2023-11-18T08:45:28;101880.53;;;8.04;100.00
29417;BME280;28421;51.030;4.006;2023-11-18T08:47:59;101858.91;;;7.95;100.00
29417;BME280;28421;51.030;4.006;2023-11-18T08:50:25;101861.53;;;7.86;100.00
29417;BME280;28421;51.030;4.006;2023-11-18T08:52:52;101852.13;;;7.91;100.00
29417;BME280;28421;51.030;4.006;2023-11-18T08:55:24;101876.72;;;8.17;100.00
29417;BME280;28421;51.030;4.006;2023-11-18T08:58:04;101861.88;;;8.13;100.00
29417;BME280;28421;51.030;4.006;2023-11-18T09:00:42;101862.84;;;8.12;100.00
29417;BME280;28421;51.030;4.006;2023-11-18T09:03:24;101855.53;;;8.14;100.00
29417;BME280;28421;51.030;4.006;2023-11-18T09:06:03;101808.88;;;7.96;100.00
29417;BME280;28421;51.030;4.006;2023-11-18T09:08:36;101833.84;;;8.17;100.00
29417;BME280;28421;51.030;4.006;2023-11-18T09:11:07;101789.94;;;8.09;100.00
29417;BME280;28421;51.030;4.006;2023-11-18T09:13:34;101796.75;;;8.13;100.00
29417;BME280;28421;51.030;4.006;2023-11-18T09:16:05;101767.16;;;7.93;100.00
29417;BME280;28421;51.030;4.006;2023-11-18T09:18:38;101806.19;;;8.17;100.00
29417;BME280;28421;51.030;4.006;2023-11-18T09:21:04;101774.66;;;8.00;100.00
29417;BME280;28421;51.030;4.006;2023-11-18T09:23:32;101815.97;;;8.28;100.00
29417;BME280;28421;51.030;4.006;2023-11-18T09:26:00;101794.63;;;8.16;100.00
29417;BME280;28421;51.030;4.006;2023-11-18T09:28:27;101817.81;;;8.27;100.00
29417;BME280;28421;51.030;4.006;2023-11-18T09:30:56;101791.25;;;8.14;100.00
29417;BME280;28421;51.030;4.006;2023-11-18T09:33:25;101793.16;;;8.33;100.00
29417;BME280;28421;51.030;4.006;2023-11-18T09:35:55;101762.03;;;8.11;100.00
29417;BME280;28421;51.030;4.006;2023-11-18T09:38:25;101741.56;;;8.01;100.00
29417;BME280;28421;51.030;4.006;2023-11-18T09:40:53;101775.53;;;8.31;100.00
29417;BME280;28421;51.030;4.006;2023-11-18T09:43:18;101746.13;;;8.19;100.00
29417;BME280;28421;51.030;4.006;2023-11-18T09:45:45;101751.25;;;8.32;100.00
29417;BME280;28421;51.030;4.006;2023-11-18T09:48:17;101742.31;;;8.43;100.00
29417;BME280;28421;51.030;4.006;2023-11-18T09:50:45;101684.94;;;8.15;100.00
29417;BME280;28421;51.030;4.006;2023-11-18T09:53:14;101709.25;;;8.33;100.00
29417;BME280;28421;51.030;4.006;2023-11-18T09:55:59;101720.25;;;8.30;100.00
29417;BME280;28421;51.030;4.006;2023-11-18T09:58:38;101711.91;;;8.33;100.00
29417;BME280;28421;51.030;4.006;2023-11-18T10:01:07;101710.59;;;8.48;100.00
29417;BME280;28421;51.030;4.006;2023-11-18T10:03:32;101691.06;;;8.36;100.00
29417;BME280;28421;51.030;4.006;2023-11-18T10:06:02;101689.25;;;8.37;100.00
29417;BME280;28421;51.030;4.006;2023-11-18T10:08:31;101707.66;;;8.51;100.00
29417;BME280;28421;51.030;4.006;2023-11-18T10:10:56;101678.00;;;8.43;100.00
29417;BME280;28421;51.030;4.006;2023-11-18T10:13:31;101669.69;;;8.46;100.00
29417;BME280;28421;51.030;4.006;2023-11-18T10:16:02;101673.50;;;8.43;100.00
29417;BME280;28421;51.030;4.006;2023-11-18T10:18:30;101672.22;;;8.48;100.00
29417;BME280;28421;51.030;4.006;2023-11-18T10:21:00;101683.53;;;8.61;100.00
29417;BME280;28421;51.030;4.006;2023-11-18T10:23:26;101640.00;;;8.28;100.00
29417;BME280;28421;51.030;4.006;2023-11-18T10:25:54;101652.28;;;8.31;100.00
29417;BME280;28421;51.030;4.006;2023-11-18T10:28:26;101681.13;;;8.58;100.00
29417;BME280;28421;51.030;4.006;2023-11-18T10:31:03;101628.16;;;8.31;100.00
29417;BME280;28421;51.030;4.006;2023-11-18T10:33:34;101618.97;;;8.23;100.00
29417;BME280;28421;51.030;4.006;2023-11-18T10:36:01;101674.50;;;8.52;100.00
29417;BME280;28421;51.030;4.006;2023-11-18T10:38:31;101672.66;;;8.53;100.00
29417;BME280;28421;51.030;4.006;2023-11-18T10:40:58;101641.47;;;8.42;100.00
29417;BME280;28421;51.030;4.006;2023-11-18T10:43:28;101617.13;;;8.24;100.00
29417;BME280;28421;51.030;4.006;2023-11-18T10:46:09;101631.72;;;8.41;100.00
29417;BME280;28421;51.030;4.006;2023-11-18T10:48:48;101631.72;;;8.41;100.00
29417;BME280;28421;51.030;4.006;2023-11-18T10:51:15;101627.50;;;8.38;100.00
29417;BME280;28421;51.030;4.006;2023-11-18T10:53:47;101633.72;;;8.49;100.00
29417;BME280;28421;51.030;4.006;2023-11-18T10:56:19;101603.47;;;8.27;100.00
29417;BME280;28421;51.030;4.006;2023-11-18T10:58:50;101632.31;;;8.64;100.00
29417;BME280;28421;51.030;4.006;2023-11-18T11:01:27;101611.00;;;8.53;100.00
29417;BME280;28421;51.030;4.006;2023-11-18T11:03:53;101630.91;;;8.60;100.00
29417;BME280;28421;51.030;4.006;2023-11-18T11:06:23;101617.78;;;8.66;100.00
29417;BME280;28421;51.030;4.006;2023-11-18T11:08:50;101596.91;;;8.60;100.00
29417;BME280;28421;51.030;4.006;2023-11-18T11:11:19;101534.22;;;8.32;100.00
29417;BME280;28421;51.030;4.006;2023-11-18T11:13:49;101598.03;;;8.67;100.00
29417;BME280;28421;51.030;4.006;2023-11-18T11:16:18;101606.22;;;8.76;100.00
29417;BME280;28421;51.030;4.006;2023-11-18T11:18:47;101564.03;;;8.58;100.00
29417;BME280;28421;51.030;4.006;2023-11-18T11:21:20;101561.50;;;8.76;100.00
29417;BME280;28421;51.030;4.006;2023-11-18T11:24:11;101546.81;;;8.80;100.00
29417;BME280;28421;51.030;4.006;2023-11-18T11:26:56;101509.56;;;8.67;100.00
29417;BME280;28421;51.030;4.006;2023-11-18T11:29:50;101534.41;;;8.79;100.00
29417;BME280;28421;51.030;4.006;2023-11-18T11:32:39;101491.22;;;8.73;100.00
29417;BME280;28421;51.030;4.006;2023-11-18T11:35:10;101495.44;;;8.65;100.00
29417;BME280;28421;51.030;4.006;2023-11-18T11:37:44;101476.81;;;8.74;100.00
29417;BME280;28421;51.030;4.006;2023-11-18T11:40:11;101459.31;;;8.69;100.00
29417;BME280;28421;51.030;4.006;2023-11-18T11:42:39;101427.03;;;8.61;100.00
29417;BME280;28421;51.030;4.006;2023-11-18T11:45:06;101465.03;;;8.94;100.00
29417;BME280;28421;51.030;4.006;2023-11-18T11:47:47;101450.16;;;8.72;100.00
29417;BME280;28421;51.030;4.006;2023-11-18T11:50:27;101443.00;;;8.63;100.00
29417;BME280;28421;51.030;4.006;2023-11-18T11:53:03;101439.72;;;8.69;100.00
29417;BME280;28421;51.030;4.006;2023-11-18T11:55:49;101476.22;;;8.89;100.00
29417;BME280;28421;51.030;4.006;2023-11-18T11:58:30;101441.53;;;8.78;100.00
29417;BME280;28421;51.030;4.006;2023-11-18T12:01:02;101441.69;;;8.77;100.00
29417;BME280;28421;51.030;4.006;2023-11-18T12:03:40;101459.56;;;8.86;100.00
29417;BME280;28421;51.030;4.006;2023-11-18T12:06:10;101461.97;;;8.89;100.00
29417;BME280;28421;51.030;4.006;2023-11-18T12:08:42;101444.59;;;8.93;100.00
29417;BME280;28421;51.030;4.006;2023-11-18T12:11:09;101460.06;;;8.99;100.00
29417;BME280;28421;51.030;4.006;2023-11-18T12:13:38;101455.56;;;9.00;100.00
29417;BME280;28421;51.030;4.006;2023-11-18T12:16:05;101460.06;;;8.99;100.00
29417;BME280;28421;51.030;4.006;2023-11-18T12:18:35;101440.34;;;9.00;100.00
29417;BME280;28421;51.030;4.006;2023-11-18T12:21:04;101399.47;;;8.79;100.00
29417;BME280;28421;51.030;4.006;2023-11-18T12:23:30;101374.59;;;8.86;100.00
29417;BME280;28421;51.030;4.006;2023-11-18T12:25:59;101389.50;;;8.99;100.00
29417;BME280;28421;51.030;4.006;2023-11-18T12:28:29;101362.47;;;8.82;100.00
29417;BME280;28421;51.030;4.006;2023-11-18T12:31:11;101401.03;;;9.09;100.00
29417;BME280;28421;51.030;4.006;2023-11-18T12:41:42;101354.09;;;8.95;100.00
29417;BME280;28421;51.030;4.006;2023-11-18T12:46:50;101328.28;;;9.12;100.00
29417;BME280;28421;51.030;4.006;2023-11-18T12:49:19;101341.56;;;9.13;100.00
29417;BME280;28421;51.030;4.006;2023-11-18T12:51:50;101331.59;;;9.06;100.00
29417;BME280;28421;51.030;4.006;2023-11-18T12:54:16;101308.09;;;8.90;100.00
29417;BME280;28421;51.030;4.006;2023-11-18T12:56:44;101323.16;;;9.01;100.00
29417;BME280;28421;51.030;4.006;2023-11-18T12:59:12;101318.19;;;9.06;100.00
29417;BME280;28421;51.030;4.006;2023-11-18T13:01:38;101336.31;;;9.21;100.00
29417;BME280;28421;51.030;4.006;2023-11-18T13:04:07;101311.34;;;9.11;100.00
29417;BME280;28421;51.030;4.006;2023-11-18T13:06:34;101305.06;;;9.20;100.00
29417;BME280;28421;51.030;4.006;2023-11-18T13:09:00;101316.91;;;9.28;100.00